createdAt,value
2018-08-16T00:00:51.752Z,1014.97
2018-08-16T00:01:51.692Z,1014.92
2018-08-16T00:02:51.710Z,1014.95
2018-08-16T00:03:51.668Z,1014.89
2018-08-16T00:04:51.661Z,1014.92
2018-08-16T00:05:51.672Z,1014.88
2018-08-16T00:06:51.681Z,1014.86
2018-08-16T00:07:51.634Z,1014.82
2018-08-16T00:08:51.629Z,1014.84
2018-08-16T00:09:51.607Z,1014.80
2018-08-16T00:10:51.693Z,1014.79
2018-08-16T00:11:51.581Z,1014.78
2018-08-16T00:12:51.573Z,1014.82
2018-08-16T00:13:51.623Z,1014.81
2018-08-16T00:14:51.579Z,1014.85
2018-08-16T00:15:51.534Z,1014.85
2018-08-16T00:16:51.528Z,1014.88
2018-08-16T00:17:51.512Z,1014.80
2018-08-16T00:18:51.535Z,1014.81
2018-08-16T00:19:51.539Z,1014.83
2018-08-16T00:20:51.506Z,1014.81
2018-08-16T00:21:51.466Z,1014.80
2018-08-16T00:22:51.460Z,1014.80
2018-08-16T00:23:51.448Z,1014.83
2018-08-16T00:24:51.432Z,1014.76
2018-08-16T00:25:51.483Z,1014.78
2018-08-16T00:26:51.409Z,1014.79
2018-08-16T00:27:51.398Z,1014.80
2018-08-16T00:28:51.386Z,1014.81
2018-08-16T00:29:51.378Z,1014.83
2018-08-16T00:30:51.394Z,1014.84
2018-08-16T00:31:51.405Z,1014.84
2018-08-16T00:32:51.381Z,1014.79
2018-08-16T00:33:51.364Z,1014.81
2018-08-16T00:34:51.333Z,1014.76
2018-08-16T00:35:51.314Z,1014.76
2018-08-16T00:36:51.315Z,1014.79
2018-08-16T00:37:51.322Z,1014.80
2018-08-16T00:38:51.317Z,1014.82
2018-08-16T00:39:51.301Z,1014.78
2018-08-16T00:40:51.265Z,1014.83
2018-08-16T00:41:51.256Z,1014.88
2018-08-16T00:42:51.293Z,1014.83
2018-08-16T00:43:51.229Z,1014.82
2018-08-16T00:44:51.214Z,1014.81
2018-08-16T00:45:51.204Z,1014.76
2018-08-16T00:46:51.197Z,1014.78
2018-08-16T00:47:51.229Z,1014.78
2018-08-16T00:48:51.192Z,1014.75
2018-08-16T00:49:51.159Z,1014.78
2018-08-16T00:50:51.191Z,1014.79
2018-08-16T00:51:51.141Z,1014.78
2018-08-16T00:52:51.145Z,1014.77
2018-08-16T00:53:51.118Z,1014.78
2018-08-16T00:54:51.103Z,1014.72
2018-08-16T00:55:51.166Z,1014.73
2018-08-16T00:56:51.105Z,1014.73
2018-08-16T00:57:51.068Z,1014.72
2018-08-16T00:58:51.089Z,1014.72
2018-08-16T00:59:51.054Z,1014.75
2018-08-16T01:00:51.037Z,1014.70
2018-08-16T01:01:51.018Z,1014.69
2018-08-16T01:02:51.009Z,1014.73
2018-08-16T01:03:51.069Z,1014.68
2018-08-16T01:04:50.990Z,1014.70
2018-08-16T01:05:50.995Z,1014.73
2018-08-16T01:06:50.970Z,1014.68
2018-08-16T01:07:50.985Z,1014.73
2018-08-16T01:08:50.941Z,1014.66
2018-08-16T01:09:50.975Z,1014.72
2018-08-16T01:10:50.922Z,1014.69
2018-08-16T01:11:50.935Z,1014.66
2018-08-16T01:12:50.894Z,1014.68
2018-08-16T01:13:50.940Z,1014.67
2018-08-16T01:14:50.877Z,1014.71
2018-08-16T01:15:51.064Z,1014.70
2018-08-16T01:16:50.853Z,1014.67
2018-08-16T01:17:50.862Z,1014.68
2018-08-16T01:18:50.871Z,1014.64
2018-08-16T01:19:50.818Z,1014.70
2018-08-16T01:20:50.857Z,1014.66
2018-08-16T01:21:50.802Z,1014.69
2018-08-16T01:22:50.819Z,1014.65
2018-08-16T01:23:50.803Z,1014.69
2018-08-16T01:24:50.796Z,1014.69
2018-08-16T01:25:51.109Z,1014.67
2018-08-16T01:26:50.748Z,1014.60
2018-08-16T01:27:50.732Z,1014.67
2018-08-16T01:28:50.734Z,1014.61
2018-08-16T01:29:50.734Z,1014.62
2018-08-16T01:30:50.696Z,1014.59
2018-08-16T01:31:50.706Z,1014.61
2018-08-16T01:32:50.673Z,1014.64
2018-08-16T01:33:50.693Z,1014.67
2018-08-16T01:34:50.651Z,1014.59
2018-08-16T01:35:50.639Z,1014.57
2018-08-16T01:36:50.652Z,1014.60
2018-08-16T01:37:50.647Z,1014.58
2018-08-16T01:38:50.635Z,1014.60
2018-08-16T01:39:50.626Z,1014.59
2018-08-16T01:40:50.617Z,1014.59
2018-08-16T01:41:50.575Z,1014.60
2018-08-16T01:42:50.582Z,1014.62
2018-08-16T01:43:50.559Z,1014.54
2018-08-16T01:44:50.577Z,1014.59
2018-08-16T01:45:50.526Z,1014.57
2018-08-16T01:46:50.524Z,1014.60
2018-08-16T01:47:50.506Z,1014.53
2018-08-16T01:48:50.503Z,1014.58
2018-08-16T01:49:50.514Z,1014.55
2018-08-16T01:50:50.474Z,1014.59
2018-08-16T01:51:50.462Z,1014.58
2018-08-16T01:52:50.481Z,1014.56
2018-08-16T01:53:50.438Z,1014.53
2018-08-16T01:54:50.471Z,1014.55
2018-08-16T01:55:50.525Z,1014.56
2018-08-16T01:56:50.408Z,1014.57
2018-08-16T01:57:50.531Z,1014.56
2018-08-16T01:58:50.392Z,1014.57
2018-08-16T01:59:50.377Z,1014.58
2018-08-16T02:00:50.381Z,1014.62
2018-08-16T02:01:50.378Z,1014.53
2018-08-16T02:02:57.480Z,1014.52
2018-08-16T02:03:50.328Z,1014.53
2018-08-16T02:04:50.319Z,1014.52
2018-08-16T02:05:50.358Z,1014.52
2018-08-16T02:06:50.311Z,1014.54
2018-08-16T02:07:50.324Z,1014.52
2018-08-16T02:08:50.300Z,1014.55
2018-08-16T02:09:50.260Z,1014.53
2018-08-16T02:10:50.280Z,1014.56
2018-08-16T02:11:50.244Z,1014.53
2018-08-16T02:12:50.227Z,1014.49
2018-08-16T02:13:50.220Z,1014.51
2018-08-16T02:14:50.217Z,1014.52
2018-08-16T02:15:50.221Z,1014.49
2018-08-16T02:16:50.246Z,1014.46
2018-08-16T02:17:50.176Z,1014.49
2018-08-16T02:18:50.167Z,1014.50
2018-08-16T02:19:50.154Z,1014.42
2018-08-16T02:20:50.171Z,1014.42
2018-08-16T02:21:50.127Z,1014.40
2018-08-16T02:22:50.125Z,1014.39
2018-08-16T02:23:50.144Z,1014.39
2018-08-16T02:24:50.099Z,1014.41
2018-08-16T02:25:50.087Z,1014.35
2018-08-16T02:26:50.074Z,1014.39
2018-08-16T02:27:50.098Z,1014.41
2018-08-16T02:28:50.087Z,1014.45
2018-08-16T02:29:50.041Z,1014.39
2018-08-16T02:30:50.032Z,1014.43
2018-08-16T02:31:50.020Z,1014.42
2018-08-16T02:32:50.110Z,1014.40
2018-08-16T02:33:49.996Z,1014.36
2018-08-16T02:34:50.015Z,1014.41
2018-08-16T02:35:50.003Z,1014.44
2018-08-16T02:36:49.964Z,1014.44
2018-08-16T02:37:49.953Z,1014.44
2018-08-16T02:38:49.972Z,1014.46
2018-08-16T02:39:49.939Z,1014.36
2018-08-16T02:40:49.972Z,1014.40
2018-08-16T02:41:49.911Z,1014.38
2018-08-16T02:42:49.931Z,1014.38
2018-08-16T02:43:49.889Z,1014.27
2018-08-16T02:44:49.877Z,1014.28
2018-08-16T02:45:49.881Z,1014.25
2018-08-16T02:46:49.850Z,1014.25
2018-08-16T02:47:49.861Z,1014.19
2018-08-16T02:48:49.869Z,1014.28
2018-08-16T02:49:49.816Z,1014.27
2018-08-16T02:50:49.829Z,1014.26
2018-08-16T02:51:49.832Z,1014.26
2018-08-16T02:52:49.826Z,1014.28
2018-08-16T02:53:49.774Z,1014.21
2018-08-16T02:54:49.764Z,1014.22
2018-08-16T02:55:49.770Z,1014.27
2018-08-16T02:56:49.753Z,1014.23
2018-08-16T02:57:49.768Z,1014.19
2018-08-16T02:58:49.751Z,1014.18
2018-08-16T02:59:49.707Z,1014.22
2018-08-16T03:00:49.754Z,1014.19
2018-08-16T03:01:49.723Z,1014.19
2018-08-16T03:02:49.671Z,1014.17
2018-08-16T03:03:49.661Z,1014.19
2018-08-16T03:04:50.457Z,1014.13
2018-08-16T03:05:49.636Z,1014.17
2018-08-16T03:06:49.669Z,1014.12
2018-08-16T03:07:49.619Z,1014.12
2018-08-16T03:08:49.608Z,1014.09
2018-08-16T03:09:49.621Z,1014.06
2018-08-16T03:10:49.627Z,1014.11
2018-08-16T03:11:49.597Z,1014.09
2018-08-16T03:12:49.567Z,1014.09
2018-08-16T03:13:49.562Z,1014.02
2018-08-16T03:14:49.541Z,1014.02
2018-08-16T03:15:49.575Z,1014.00
2018-08-16T03:16:49.515Z,1014.01
2018-08-16T03:17:49.547Z,1013.99
2018-08-16T03:18:49.563Z,1013.97
2018-08-16T03:19:49.484Z,1013.97
2018-08-16T03:20:49.470Z,1013.95
2018-08-16T03:21:49.495Z,1013.94
2018-08-16T03:22:49.454Z,1013.93
2018-08-16T03:23:49.448Z,1014.00
2018-08-16T03:24:49.482Z,1014.00
2018-08-16T03:25:49.412Z,1013.94
2018-08-16T03:26:49.405Z,1013.96
2018-08-16T03:27:49.397Z,1013.96
2018-08-16T03:28:49.380Z,1013.95
2018-08-16T03:29:49.400Z,1013.92
2018-08-16T03:30:49.359Z,1013.93
2018-08-16T03:31:49.357Z,1013.92
2018-08-16T03:32:49.336Z,1013.88
2018-08-16T03:33:49.359Z,1013.90
2018-08-16T03:34:49.311Z,1013.85
2018-08-16T03:35:49.309Z,1013.90
2018-08-16T03:36:49.402Z,1013.87
2018-08-16T03:37:49.283Z,1013.85
2018-08-16T03:38:49.267Z,1013.77
2018-08-16T03:39:49.261Z,1013.81
2018-08-16T03:40:49.261Z,1013.86
2018-08-16T03:41:49.261Z,1013.83
2018-08-16T03:42:49.222Z,1013.83
2018-08-16T03:43:49.216Z,1013.75
2018-08-16T03:44:49.199Z,1013.86
2018-08-16T03:45:49.224Z,1013.79
2018-08-16T03:46:49.215Z,1013.83
2018-08-16T03:47:49.175Z,1013.80
2018-08-16T03:48:49.157Z,1013.76
2018-08-16T03:49:49.145Z,1013.76
2018-08-16T03:50:49.135Z,1013.81
2018-08-16T03:51:49.163Z,1013.83
2018-08-16T03:52:49.928Z,1013.79
2018-08-16T03:53:49.131Z,1013.79
2018-08-16T03:54:49.108Z,1013.77
2018-08-16T03:55:49.100Z,1013.85
2018-08-16T03:56:49.123Z,1013.79
2018-08-16T03:57:49.064Z,1013.82
2018-08-16T03:58:49.050Z,1013.80
2018-08-16T03:59:49.032Z,1013.81
2018-08-16T04:00:49.028Z,1013.78
2018-08-16T04:01:49.066Z,1013.82
2018-08-16T04:02:49.005Z,1013.77
2018-08-16T04:03:48.992Z,1013.81
2018-08-16T04:04:48.976Z,1013.81
2018-08-16T04:05:48.963Z,1013.83
2018-08-16T04:06:48.992Z,1013.80
2018-08-16T04:07:48.976Z,1013.88
2018-08-16T04:08:48.932Z,1013.81
2018-08-16T04:09:48.919Z,1013.85
2018-08-16T04:10:48.916Z,1013.79
2018-08-16T04:11:48.922Z,1013.85
2018-08-16T04:12:48.915Z,1013.83
2018-08-16T04:13:48.887Z,1013.82
2018-08-16T04:14:48.875Z,1013.83
2018-08-16T04:15:48.855Z,1013.82
2018-08-16T04:16:48.967Z,1013.84
2018-08-16T04:17:48.831Z,1013.81
2018-08-16T04:18:48.822Z,1013.83
2018-08-16T04:19:48.823Z,1013.82
2018-08-16T04:20:48.803Z,1013.83
2018-08-16T04:21:48.818Z,1013.84
2018-08-16T04:22:48.780Z,1013.88
2018-08-16T04:23:48.769Z,1013.84
2018-08-16T04:24:48.755Z,1013.92
2018-08-16T04:25:48.781Z,1013.90
2018-08-16T04:26:48.729Z,1013.92
2018-08-16T04:27:48.718Z,1013.91
2018-08-16T04:28:48.736Z,1013.91
2018-08-16T04:29:48.737Z,1013.91
2018-08-16T04:30:48.687Z,1013.86
2018-08-16T04:31:48.679Z,1013.98
2018-08-16T04:32:48.782Z,1013.95
2018-08-16T04:33:48.660Z,1013.92
2018-08-16T04:34:48.644Z,1013.97
2018-08-16T04:35:48.675Z,1013.93
2018-08-16T04:36:48.628Z,1013.95
2018-08-16T04:37:48.617Z,1013.94
2018-08-16T04:38:48.601Z,1013.96
2018-08-16T04:39:48.615Z,1014.05
2018-08-16T04:40:48.604Z,1014.01
2018-08-16T04:41:48.748Z,1014.02
2018-08-16T04:42:48.551Z,1013.99
2018-08-16T04:43:48.541Z,1013.98
2018-08-16T04:44:48.528Z,1014.02
2018-08-16T04:45:48.549Z,1014.00
2018-08-16T04:46:48.540Z,1014.02
2018-08-16T04:47:48.495Z,1014.01
2018-08-16T04:48:48.500Z,1013.99
2018-08-16T04:49:48.474Z,1014.04
2018-08-16T04:50:48.497Z,1013.96
2018-08-16T04:51:48.513Z,1014.02
2018-08-16T04:52:48.442Z,1014.03
2018-08-16T04:53:48.430Z,1014.00
2018-08-16T04:54:48.425Z,1013.96
2018-08-16T04:55:48.409Z,1013.99
2018-08-16T04:56:48.457Z,1013.98
2018-08-16T04:57:48.384Z,1014.02
2018-08-16T04:58:48.378Z,1013.98
2018-08-16T04:59:48.366Z,1013.99
2018-08-16T05:00:48.361Z,1013.96
2018-08-16T05:01:48.378Z,1014.00
2018-08-16T05:02:48.347Z,1014.00
2018-08-16T05:03:48.322Z,1014.03
2018-08-16T05:04:48.354Z,1014.02
2018-08-16T05:05:48.295Z,1014.06
2018-08-16T05:06:48.292Z,1014.05
2018-08-16T05:07:48.275Z,1014.09
2018-08-16T05:08:48.266Z,1014.05
2018-08-16T05:09:48.285Z,1014.05
2018-08-16T05:10:48.250Z,1014.06
2018-08-16T05:11:48.275Z,1014.07
2018-08-16T05:12:48.299Z,1014.07
2018-08-16T05:13:48.210Z,1014.03
2018-08-16T05:14:48.201Z,1014.02
2018-08-16T05:15:48.220Z,1014.03
2018-08-16T05:16:48.175Z,1014.09
2018-08-16T05:17:48.205Z,1014.10
2018-08-16T05:18:48.150Z,1014.11
2018-08-16T05:19:48.152Z,1014.07
2018-08-16T05:20:48.128Z,1014.04
2018-08-16T05:21:48.154Z,1014.01
2018-08-16T05:22:48.109Z,1014.05
2018-08-16T05:23:49.037Z,1014.06
2018-08-16T05:24:48.087Z,1014.01
2018-08-16T05:25:48.083Z,1014.09
2018-08-16T05:26:48.095Z,1014.04
2018-08-16T05:27:48.085Z,1013.99
2018-08-16T05:28:48.039Z,1013.97
2018-08-16T05:29:48.036Z,1014.02
2018-08-16T05:30:48.145Z,1013.97
2018-08-16T05:31:48.105Z,1014.01
2018-08-16T05:32:47.998Z,1014.01
2018-08-16T05:33:47.986Z,1014.04
2018-08-16T05:34:47.975Z,1014.03
2018-08-16T05:35:48.000Z,1013.99
2018-08-16T05:36:47.956Z,1014.02
2018-08-16T05:37:47.942Z,1014.01
2018-08-16T05:38:47.936Z,1013.96
2018-08-16T05:39:47.921Z,1014.03
2018-08-16T05:40:47.934Z,1014.05
2018-08-16T05:41:47.891Z,1014.03
2018-08-16T05:42:47.923Z,1014.01
2018-08-16T05:43:47.872Z,1013.99
2018-08-16T05:44:47.859Z,1014.06
2018-08-16T05:45:47.846Z,1014.02
2018-08-16T05:46:47.838Z,1014.05
2018-08-16T05:47:47.908Z,1014.06
2018-08-16T05:48:47.813Z,1014.05
2018-08-16T05:49:47.800Z,1014.04
2018-08-16T05:50:47.840Z,1014.02
2018-08-16T05:51:47.779Z,1014.04
2018-08-16T05:52:47.795Z,1014.03
2018-08-16T05:53:47.764Z,1014.03
2018-08-16T05:54:47.750Z,1014.04
2018-08-16T05:55:47.759Z,1014.06
2018-08-16T05:56:47.725Z,1014.02
2018-08-16T05:57:47.754Z,1013.99
2018-08-16T05:58:47.733Z,1013.93
2018-08-16T05:59:47.696Z,1013.93
2018-08-16T06:00:47.722Z,1013.97
2018-08-16T06:01:47.667Z,1013.96
2018-08-16T06:02:47.667Z,1013.98
2018-08-16T06:03:47.653Z,1014.00
2018-08-16T06:04:47.669Z,1013.96
2018-08-16T06:05:47.630Z,1013.95
2018-08-16T06:06:47.612Z,1013.92
2018-08-16T06:07:47.612Z,1013.90
2018-08-16T06:08:47.590Z,1013.87
2018-08-16T06:09:47.607Z,1013.88
2018-08-16T06:10:47.579Z,1013.91
2018-08-16T06:11:47.558Z,1013.84
2018-08-16T06:12:47.557Z,1013.89
2018-08-16T06:13:47.548Z,1013.83
2018-08-16T06:14:47.549Z,1013.84
2018-08-16T06:15:47.522Z,1013.79
2018-08-16T06:16:47.529Z,1013.80
2018-08-16T06:17:47.494Z,1013.73
2018-08-16T06:18:47.481Z,1013.75
2018-08-16T06:19:47.469Z,1013.75
2018-08-16T06:20:47.489Z,1013.71
2018-08-16T06:21:47.449Z,1013.79
2018-08-16T06:22:47.438Z,1013.70
2018-08-16T06:23:47.456Z,1013.65
2018-08-16T06:24:47.412Z,1013.64
2018-08-16T06:25:47.431Z,1013.59
2018-08-16T06:26:47.388Z,1013.62
2018-08-16T06:27:47.463Z,1013.64
2018-08-16T06:28:47.369Z,1013.62
2018-08-16T06:29:47.389Z,1013.64
2018-08-16T06:30:47.379Z,1013.65
2018-08-16T06:31:47.358Z,1013.63
2018-08-16T06:32:47.318Z,1013.63
2018-08-16T06:33:47.313Z,1013.63
2018-08-16T06:34:47.301Z,1013.60
2018-08-16T06:35:47.330Z,1013.65
2018-08-16T06:36:47.280Z,1013.63
2018-08-16T06:37:47.266Z,1013.67
2018-08-16T06:38:47.321Z,1013.64
2018-08-16T06:39:47.254Z,1013.64
2018-08-16T06:40:47.272Z,1013.63
2018-08-16T06:41:47.219Z,1013.65
2018-08-16T06:42:47.213Z,1013.63
2018-08-16T06:43:47.194Z,1013.65
2018-08-16T06:44:47.186Z,1013.61
2018-08-16T06:45:47.200Z,1013.63
2018-08-16T06:46:47.161Z,1013.62
2018-08-16T06:47:47.153Z,1013.64
2018-08-16T06:48:47.137Z,1013.63
2018-08-16T06:49:47.175Z,1013.63
2018-08-16T06:50:47.131Z,1013.62
2018-08-16T06:51:47.142Z,1013.67
2018-08-16T06:52:47.131Z,1013.67
2018-08-16T06:53:47.084Z,1013.63
2018-08-16T06:54:47.135Z,1013.67
2018-08-16T06:55:47.067Z,1013.65
2018-08-16T06:56:47.053Z,1013.63
2018-08-16T06:57:47.044Z,1013.63
2018-08-16T06:58:47.034Z,1013.60
2018-08-16T06:59:47.058Z,1013.63
2018-08-16T07:00:47.070Z,1013.58
2018-08-16T07:01:47.004Z,1013.62
2018-08-16T07:02:46.982Z,1013.59
2018-08-16T07:03:46.970Z,1013.61
2018-08-16T07:04:47.052Z,1013.62
2018-08-16T07:05:46.953Z,1013.60
2018-08-16T07:06:46.961Z,1013.56
2018-08-16T07:07:46.927Z,1013.56
2018-08-16T07:08:46.956Z,1013.53
2018-08-16T07:09:46.907Z,1013.57
2018-08-16T07:10:46.919Z,1013.61
2018-08-16T07:11:46.890Z,1013.54
2018-08-16T07:12:46.904Z,1013.59
2018-08-16T07:13:46.864Z,1013.58
2018-08-16T07:14:46.847Z,1013.54
2018-08-16T07:15:46.866Z,1013.55
2018-08-16T07:16:46.821Z,1013.55
2018-08-16T07:17:46.866Z,1013.54
2018-08-16T07:18:46.855Z,1013.58
2018-08-16T07:19:46.789Z,1013.56
2018-08-16T07:20:46.780Z,1013.58
2018-08-16T07:21:46.766Z,1013.57
2018-08-16T07:22:46.797Z,1013.59
2018-08-16T07:23:46.742Z,1013.54
2018-08-16T07:24:46.801Z,1013.51
2018-08-16T07:25:46.748Z,1013.47
2018-08-16T07:26:46.714Z,1013.50
2018-08-16T07:27:46.704Z,1013.52
2018-08-16T07:28:46.693Z,1013.48
2018-08-16T07:29:46.707Z,1013.46
2018-08-16T07:30:46.702Z,1013.45
2018-08-16T07:31:46.667Z,1013.51
2018-08-16T07:32:46.672Z,1013.49
2018-08-16T07:33:46.630Z,1013.52
2018-08-16T07:34:46.620Z,1013.50
2018-08-16T07:35:46.652Z,1013.58
2018-08-16T07:36:46.616Z,1013.52
2018-08-16T07:37:46.600Z,1013.49
2018-08-16T07:38:46.581Z,1013.52
2018-08-16T07:39:46.566Z,1013.48
2018-08-16T07:40:46.613Z,1013.48
2018-08-16T07:41:46.545Z,1013.50
2018-08-16T07:42:46.541Z,1013.51
2018-08-16T07:43:46.526Z,1013.51
2018-08-16T07:44:46.524Z,1013.50
2018-08-16T07:45:46.661Z,1013.50
2018-08-16T07:46:46.497Z,1013.45
2018-08-16T07:47:46.985Z,1013.52
2018-08-16T07:48:46.472Z,1013.47
2018-08-16T07:49:46.460Z,1013.50
2018-08-16T07:50:46.501Z,1013.52
2018-08-16T07:51:46.594Z,1013.53
2018-08-16T07:52:46.425Z,1013.49
2018-08-16T07:53:46.415Z,1013.52
2018-08-16T07:54:46.432Z,1013.53
2018-08-16T07:55:47.025Z,1013.49
2018-08-16T07:56:46.374Z,1013.50
2018-08-16T07:57:46.368Z,1013.50
2018-08-16T07:58:46.357Z,1013.45
2018-08-16T07:59:46.388Z,1013.52
2018-08-16T08:00:46.341Z,1013.49
2018-08-16T08:01:46.352Z,1013.51
2018-08-16T08:02:46.335Z,1013.51
2018-08-16T08:03:46.415Z,1013.53
2018-08-16T08:04:46.295Z,1013.47
2018-08-16T08:05:46.277Z,1013.48
2018-08-16T08:06:46.291Z,1013.51
2018-08-16T08:07:46.256Z,1013.48
2018-08-16T08:08:46.326Z,1013.54
2018-08-16T08:09:46.282Z,1013.58
2018-08-16T08:10:46.228Z,1013.47
2018-08-16T08:11:46.212Z,1013.53
2018-08-16T08:12:46.203Z,1013.50
2018-08-16T08:13:46.240Z,1013.50
2018-08-16T08:14:46.188Z,1013.55
2018-08-16T08:15:46.168Z,1013.52
2018-08-16T08:16:46.155Z,1013.54
2018-08-16T08:17:46.143Z,1013.53
2018-08-16T08:18:46.168Z,1013.54
2018-08-16T08:19:46.117Z,1013.53
2018-08-16T08:20:46.136Z,1013.51
2018-08-16T08:21:46.101Z,1013.49
2018-08-16T08:22:46.086Z,1013.47
2018-08-16T08:23:46.112Z,1013.52
2018-08-16T08:24:46.070Z,1013.53
2018-08-16T08:25:46.119Z,1013.48
2018-08-16T08:26:46.072Z,1013.47
2018-08-16T08:27:46.135Z,1013.48
2018-08-16T08:28:46.020Z,1013.44
2018-08-16T08:29:46.019Z,1013.44
2018-08-16T08:30:46.030Z,1013.44
2018-08-16T08:31:46.135Z,1013.49
2018-08-16T08:32:45.978Z,1013.44
2018-08-16T08:33:45.966Z,1013.44
2018-08-16T08:34:45.970Z,1013.43
2018-08-16T08:35:45.983Z,1013.41
2018-08-16T08:36:45.932Z,1013.33
2018-08-16T08:37:45.937Z,1013.32
2018-08-16T08:38:46.001Z,1013.28
2018-08-16T08:39:45.902Z,1013.31
2018-08-16T08:40:45.880Z,1013.29
2018-08-16T08:41:45.877Z,1013.29
2018-08-16T08:42:45.860Z,1013.27
2018-08-16T08:43:45.971Z,1013.25
2018-08-16T08:44:45.843Z,1013.29
2018-08-16T08:45:45.866Z,1013.32
2018-08-16T08:46:45.825Z,1013.29
2018-08-16T08:47:45.851Z,1013.25
2018-08-16T08:48:45.799Z,1013.19
2018-08-16T08:49:45.784Z,1013.19
2018-08-16T08:50:45.773Z,1013.22
2018-08-16T08:51:45.762Z,1013.22
2018-08-16T08:52:45.795Z,1013.23
2018-08-16T08:53:45.746Z,1013.20
2018-08-16T08:54:45.730Z,1013.17
2018-08-16T08:55:45.715Z,1013.21
2018-08-16T08:56:45.733Z,1013.16
2018-08-16T08:57:45.694Z,1013.19
2018-08-16T08:58:45.687Z,1013.16
2018-08-16T08:59:45.673Z,1013.12
2018-08-16T09:00:45.694Z,1013.14
2018-08-16T09:01:45.648Z,1013.12
2018-08-16T09:02:45.648Z,1013.14
2018-08-16T09:03:45.629Z,1013.15
2018-08-16T09:04:45.624Z,1013.11
2018-08-16T09:05:45.649Z,1013.13
2018-08-16T09:06:45.598Z,1013.05
2018-08-16T09:07:45.603Z,1013.09
2018-08-16T09:08:45.574Z,1013.01
2018-08-16T09:09:45.565Z,1013.04
2018-08-16T09:10:45.611Z,1013.01
2018-08-16T09:11:45.541Z,1012.98
2018-08-16T09:12:45.532Z,1012.98
2018-08-16T09:13:45.572Z,1012.94
2018-08-16T09:14:45.532Z,1012.98
2018-08-16T09:15:45.529Z,1012.97
2018-08-16T09:16:45.489Z,1012.88
2018-08-16T09:17:45.474Z,1012.90
2018-08-16T09:18:45.462Z,1012.94
2018-08-16T09:19:45.479Z,1012.89
2018-08-16T09:20:45.438Z,1012.94
2018-08-16T09:21:45.483Z,1013.02
2018-08-16T09:22:45.431Z,1012.98
2018-08-16T09:23:45.406Z,1012.95
2018-08-16T09:24:45.401Z,1012.92
2018-08-16T09:25:45.393Z,1012.92
2018-08-16T09:26:45.415Z,1012.93
2018-08-16T09:27:45.372Z,1012.98
2018-08-16T09:28:45.356Z,1012.88
2018-08-16T09:29:45.394Z,1012.84
2018-08-16T09:30:45.332Z,1012.86
2018-08-16T09:31:45.408Z,1012.83
2018-08-16T09:32:45.304Z,1012.85
2018-08-16T09:33:45.299Z,1012.82
2018-08-16T09:34:45.318Z,1012.83
2018-08-16T09:35:45.311Z,1012.82
2018-08-16T09:36:45.264Z,1012.83
2018-08-16T09:37:45.257Z,1012.85
2018-08-16T09:38:45.243Z,1012.75
2018-08-16T09:39:45.276Z,1012.79
2018-08-16T09:40:45.260Z,1012.83
2018-08-16T09:41:45.210Z,1012.77
2018-08-16T09:42:45.201Z,1012.71
2018-08-16T09:43:45.186Z,1012.77
2018-08-16T09:44:45.171Z,1012.71
2018-08-16T09:45:45.255Z,1012.73
2018-08-16T09:46:45.148Z,1012.72
2018-08-16T09:47:45.140Z,1012.69
2018-08-16T09:48:45.126Z,1012.75
2018-08-16T09:49:45.165Z,1012.72
2018-08-16T09:50:45.101Z,1012.68
2018-08-16T09:51:45.227Z,1012.73
2018-08-16T09:52:45.116Z,1012.73
2018-08-16T09:53:45.116Z,1012.66
2018-08-16T09:54:45.059Z,1012.72
2018-08-16T09:55:45.081Z,1012.71
2018-08-16T09:56:45.034Z,1012.70
2018-08-16T09:57:45.023Z,1012.75
2018-08-16T09:58:45.053Z,1012.66
2018-08-16T09:59:45.006Z,1012.70
2018-08-16T10:00:45.029Z,1012.64
2018-08-16T10:01:44.982Z,1012.68
2018-08-16T10:02:45.008Z,1012.66
2018-08-16T10:03:45.047Z,1012.62
2018-08-16T10:04:44.951Z,1012.61
2018-08-16T10:05:44.944Z,1012.63
2018-08-16T10:06:44.926Z,1012.59
2018-08-16T10:07:44.944Z,1012.63
2018-08-16T10:08:44.904Z,1012.61
2018-08-16T10:09:44.894Z,1012.56
2018-08-16T10:10:44.886Z,1012.53
2018-08-16T10:11:44.868Z,1012.57
2018-08-16T10:12:44.888Z,1012.51
2018-08-16T10:13:44.851Z,1012.50
2018-08-16T10:14:44.835Z,1012.56
2018-08-16T10:15:44.828Z,1012.51
2018-08-16T10:16:44.846Z,1012.52
2018-08-16T10:17:44.836Z,1012.47
2018-08-16T10:18:44.827Z,1012.51
2018-08-16T10:19:44.774Z,1012.44
2018-08-16T10:20:44.793Z,1012.48
2018-08-16T10:21:44.756Z,1012.44
2018-08-16T10:22:44.804Z,1012.51
2018-08-16T10:23:44.738Z,1012.45
2018-08-16T10:24:44.767Z,1012.47
2018-08-16T10:25:44.711Z,1012.43
2018-08-16T10:26:44.701Z,1012.53
2018-08-16T10:27:44.695Z,1012.49
2018-08-16T10:28:44.709Z,1012.47
2018-08-16T10:29:44.701Z,1012.43
2018-08-16T10:30:44.660Z,1012.44
2018-08-16T10:31:44.652Z,1012.46
2018-08-16T10:32:44.647Z,1012.42
2018-08-16T10:33:44.668Z,1012.40
2018-08-16T10:34:44.622Z,1012.44
2018-08-16T10:35:44.625Z,1012.48
2018-08-16T10:36:44.598Z,1012.43
2018-08-16T10:37:44.628Z,1012.41
2018-08-16T10:38:44.636Z,1012.38
2018-08-16T10:39:44.567Z,1012.40
2018-08-16T10:40:44.556Z,1012.38
2018-08-16T10:41:44.545Z,1012.40
2018-08-16T10:42:44.560Z,1012.39
2018-08-16T10:43:44.511Z,1012.41
2018-08-16T10:44:44.542Z,1012.36
2018-08-16T10:45:44.494Z,1012.39
2018-08-16T10:46:44.489Z,1012.37
2018-08-16T10:47:44.466Z,1012.32
2018-08-16T10:48:44.459Z,1012.40
2018-08-16T10:49:44.482Z,1012.32
2018-08-16T10:50:44.440Z,1012.38
2018-08-16T10:51:44.435Z,1012.34
2018-08-16T10:52:44.413Z,1012.36
2018-08-16T10:53:44.426Z,1012.36
2018-08-16T10:54:44.415Z,1012.37
2018-08-16T10:55:44.386Z,1012.34
2018-08-16T10:56:44.376Z,1012.28
2018-08-16T10:57:44.389Z,1012.28
2018-08-16T10:58:44.348Z,1012.31
2018-08-16T10:59:44.346Z,1012.26
2018-08-16T11:00:44.327Z,1012.25
2018-08-16T11:01:44.320Z,1012.28
2018-08-16T11:02:44.342Z,1012.26
2018-08-16T11:03:44.297Z,1012.18
2018-08-16T11:04:44.277Z,1012.16
2018-08-16T11:05:44.269Z,1012.21
2018-08-16T11:06:44.267Z,1012.17
2018-08-16T11:07:44.288Z,1012.19
2018-08-16T11:08:44.250Z,1012.11
2018-08-16T11:09:44.225Z,1012.12
2018-08-16T11:10:44.272Z,1012.19
2018-08-16T11:11:44.397Z,1012.11
2018-08-16T11:12:44.221Z,1012.10
2018-08-16T11:13:44.186Z,1012.20
2018-08-16T11:14:44.171Z,1012.23
2018-08-16T11:15:44.164Z,1012.18
2018-08-16T11:16:44.200Z,1012.11
2018-08-16T11:17:44.138Z,1012.17
2018-08-16T11:18:44.160Z,1012.11
2018-08-16T11:19:44.121Z,1012.13
2018-08-16T11:20:44.103Z,1012.08
2018-08-16T11:21:44.131Z,1012.12
2018-08-16T11:22:44.155Z,1012.06
2018-08-16T11:23:44.069Z,1012.08
2018-08-16T11:24:44.059Z,1012.09
2018-08-16T11:25:44.048Z,1011.99
2018-08-16T11:26:44.075Z,1012.05
2018-08-16T11:27:44.033Z,1012.04
2018-08-16T11:28:44.025Z,1012.05
2018-08-16T11:29:44.004Z,1012.00
2018-08-16T11:30:44.560Z,1011.99
2018-08-16T11:31:44.011Z,1012.03
2018-08-16T11:32:43.972Z,1012.02
2018-08-16T11:33:44.001Z,1012.04
2018-08-16T11:34:43.958Z,1012.04
2018-08-16T11:35:43.951Z,1012.03
2018-08-16T11:36:43.964Z,1012.07
2018-08-16T11:37:43.979Z,1012.00
2018-08-16T11:38:43.903Z,1012.01
2018-08-16T11:39:43.990Z,1011.98
2018-08-16T11:40:43.982Z,1012.00
2018-08-16T11:41:43.870Z,1011.93
2018-08-16T11:42:43.876Z,1011.95
2018-08-16T11:43:43.881Z,1011.98
2018-08-16T11:44:43.880Z,1012.02
2018-08-16T11:45:43.828Z,1011.96
2018-08-16T11:46:43.973Z,1011.93
2018-08-16T11:47:43.809Z,1011.92
2018-08-16T11:48:43.852Z,1011.95
2018-08-16T11:49:43.786Z,1011.91
2018-08-16T11:50:43.767Z,1011.87
2018-08-16T11:51:43.776Z,1011.86
2018-08-16T11:52:43.752Z,1011.82
2018-08-16T11:53:43.773Z,1011.83
2018-08-16T11:54:43.763Z,1011.77
2018-08-16T11:55:43.714Z,1011.80
2018-08-16T11:56:43.710Z,1011.83
2018-08-16T11:57:43.731Z,1011.84
2018-08-16T11:58:43.729Z,1011.80
2018-08-16T11:59:43.696Z,1011.82
2018-08-16T12:00:43.699Z,1011.75
2018-08-16T12:01:43.654Z,1011.86
2018-08-16T12:02:43.648Z,1011.85
2018-08-16T12:03:43.648Z,1011.77
2018-08-16T12:04:43.660Z,1011.77
2018-08-16T12:05:43.649Z,1011.79